Aleksey Kosygin — A8LY6 — position and weather

sailwx.info

Track history (hours):
 
Tides and Currents Weather Stations Pressure Air Temp Water Temp Dewpoint Dewpoint Depression Visibility Wind Speed Wind Dir Waves Ship Positions

Aleksey Kosygin

Last reported at 2017-Dec-11 08:27 UTC. Time now 2017-Dec-14 14:47 UTC.
Position N 40°57' E 028°55'.

Length 280 m; draft 15.4 m.

Type: Tanker. MMSI: 636013296.

Date/timePositionNaut miles runAvg speedWind from/ knotsBaromVisibWave heightAir tempDewpointWater temp
2017-Dec-11 08:27N 40°57' E 028°55'4 2.8
2017-Dec-11 07:09N 40°59' E 028°59'  
2017-Dec-08 07:04N 44°25' E 037°23'513.5
2017-Dec-08 06:43N 44°26' E 037°30'313.2
2017-Dec-08 06:31N 44°28' E 037°33'712.9
2017-Dec-08 06:00N 44°31' E 037°41'713.4
2017-Dec-08 05:30N 44°36' E 037°47'5 9.6
2017-Dec-08 05:00N 44°40' E 037°50'2 4.0
2017-Dec-08 04:30N 44°42' E 037°50'0 0.1
2017-Dec-08 03:59N 44°42' E 037°50'0 0.0
2017-Dec-08 03:28N 44°42' E 037°50'0 0.0
2017-Dec-08 02:59N 44°42' E 037°50'0 0.0
2017-Dec-08 02:29N 44°42' E 037°50'0 0.0
2017-Dec-08 02:00N 44°42' E 037°50'0 0.0
2017-Dec-08 01:31N 44°42' E 037°50'0 0.0
2017-Dec-08 00:59N 44°42' E 037°50'0 0.0
2017-Dec-08 00:30N 44°42' E 037°50'0 0.0
2017-Dec-07 23:56N 44°42' E 037°50'0 0.0
2017-Dec-07 23:29N 44°42' E 037°50'0 0.0
2017-Dec-07 23:00N 44°42' E 037°50'0 0.0
2017-Dec-07 22:23N 44°42' E 037°50'0 0.0
2017-Dec-07 22:00N 44°42' E 037°50'0 0.0
2017-Dec-07 21:30N 44°42' E 037°50'0 0.0
2017-Dec-07 20:58N 44°42' E 037°50'0 0.0
2017-Dec-07 20:23N 44°42' E 037°50'0 0.0
2017-Dec-07 19:54N 44°42' E 037°50'0 0.0
2017-Dec-07 19:28N 44°42' E 037°50'0 0.0
2017-Dec-07 19:00N 44°42' E 037°50'0 0.0
2017-Dec-07 18:29N 44°42' E 037°50'0 0.0
2017-Dec-07 18:00N 44°42' E 037°50'0 0.0
2017-Dec-07 17:29N 44°42' E 037°50'0 0.0
2017-Dec-07 16:56N 44°42' E 037°50'0 0.0
2017-Dec-07 16:27N 44°42' E 037°50'0 0.0
2017-Dec-07 16:00N 44°42' E 037°50'0 0.0
2017-Dec-07 15:30N 44°42' E 037°50'0 0.0
2017-Dec-07 14:58N 44°42' E 037°50'0 0.0
2017-Dec-07 14:25N 44°42' E 037°50'0 0.0
2017-Dec-07 14:00N 44°42' E 037°50'0 0.0
2017-Dec-07 13:30N 44°42' E 037°50'0 0.0
2017-Dec-07 13:00N 44°42' E 037°50'0 0.0
2017-Dec-07 12:29N 44°42' E 037°50'0 0.0
2017-Dec-07 11:59N 44°42' E 037°50'0 0.0
2017-Dec-07 11:30N 44°42' E 037°50'0 0.0
2017-Dec-07 10:58N 44°42' E 037°50'0 0.0
2017-Dec-07 10:27N 44°42' E 037°50'0 0.0
2017-Dec-07 10:00N 44°42' E 037°50'0 0.0
2017-Dec-07 09:27N 44°42' E 037°50'0 0.0
2017-Dec-07 08:56N 44°42' E 037°50'0 0.0
2017-Dec-07 08:25N 44°42' E 037°50'0 0.0
2017-Dec-07 07:58N 44°42' E 037°50'0 0.0
2017-Dec-07 07:28N 44°42' E 037°50'0 0.0
2017-Dec-07 07:00N 44°42' E 037°50'0 0.0
2017-Dec-07 06:24N 44°42' E 037°50'0 0.0
2017-Dec-07 05:59N 44°42' E 037°50'0 0.0
2017-Dec-07 05:29N 44°42' E 037°50'0 0.0
2017-Dec-07 04:58N 44°42' E 037°50'0 0.0
2017-Dec-07 04:29N 44°42' E 037°50'0 0.0
2017-Dec-07 03:59N 44°42' E 037°50'0 0.0
2017-Dec-07 03:29N 44°42' E 037°50'0 0.0
2017-Dec-07 02:58N 44°42' E 037°50'0 0.0
2017-Dec-07 02:29N 44°42' E 037°50'0 0.0
2017-Dec-07 01:58N 44°42' E 037°50'0 0.0
2017-Dec-07 01:30N 44°42' E 037°50'0 0.0
2017-Dec-07 01:00N 44°42' E 037°50'0 0.1
2017-Dec-07 00:30N 44°42' E 037°50'1 1.1
2017-Dec-07 00:00N 44°42' E 037°50'4 7.3
2017-Dec-06 23:30N 44°38' E 037°52'611.8
2017-Dec-06 23:00N 44°32' E 037°52'612.7
2017-Dec-06 22:30N 44°26' E 037°50'713.4
2017-Dec-06 22:01N 44°20' E 037°48'2 2.3
2017-Dec-06 21:14N 44°18' E 037°50'0 1.6
2017-Dec-06 21:00N 44°18' E 037°49'  
2017-Dec-04 09:55N 44°19' E 037°37'1 1.2
2017-Dec-04 09:29N 44°19' E 037°37'1 1.1
2017-Dec-04 08:56N 44°19' E 037°38'1 1.2
2017-Dec-04 08:28N 44°18' E 037°39'1 1.4
2017-Dec-04 07:32N 44°18' E 037°40'0 1.3
2017-Dec-04 07:23N 44°18' E 037°41'2 1.3
2017-Dec-04 06:03N 44°17' E 037°43'0 1.4
2017-Dec-04 05:53N 44°17' E 037°43'1 1.5
2017-Dec-04 05:30N 44°17' E 037°44'3 1.8
2017-Dec-04 03:56N 44°15' E 037°47'1 1.8
2017-Dec-04 03:30N 44°15' E 037°48'1 1.8
2017-Dec-04 02:57N 44°14' E 037°49'1 1.7
2017-Dec-04 02:29N 44°14' E 037°50'1 1.5
2017-Dec-04 02:00N 44°14' E 037°51'1 1.4
2017-Dec-04 01:29N 44°14' E 037°52'1 1.4
2017-Dec-04 00:55N 44°13' E 037°53'1 1.4
2017-Dec-04 00:28N 44°13' E 037°54'1 1.4
2017-Dec-03 23:57N 44°13' E 037°55'1 1.2
2017-Dec-03 23:12N 44°13' E 037°57'0 1.2
2017-Dec-03 23:00N 44°13' E 037°57'1 1.3
2017-Dec-03 22:30N 44°13' E 037°58'1 1.6
2017-Dec-03 21:59N 44°13' E 037°59'1 2.7
2017-Dec-03 21:30N 44°14' E 037°57'713.3
2017-Dec-03 21:00N 44°16' E 037°48'815.4
2017-Dec-03 20:30N 44°18' E 037°38'815.4
2017-Dec-03 20:00N 44°20' E 037°28'815.0
2017-Dec-03 19:30N 44°24' E 037°19'612.1
2017-Dec-03 19:00N 44°28' E 037°12'1 1.2
2017-Dec-03 18:22N 44°28' E 037°13'0 1.1
2017-Dec-03 17:57N 44°28' E 037°14'0 1.1
2017-Dec-03 17:30N 44°28' E 037°15'1 1.2
2017-Dec-03 16:59N 44°27' E 037°16'1 1.3
2017-Dec-03 16:30N 44°27' E 037°16'1 1.2
2017-Dec-03 16:00N 44°27' E 037°17'1 1.3
2017-Dec-03 15:29N 44°27' E 037°18'1 1.3
2017-Dec-03 14:55N 44°27' E 037°19'1 1.4
2017-Dec-03 14:29N 44°27' E 037°20'1 1.3
2017-Dec-03 14:00N 44°26' E 037°21'1 1.2
2017-Dec-03 13:30N 44°26' E 037°22'1 1.3
2017-Dec-03 13:00N 44°26' E 037°22'1 1.3
2017-Dec-03 12:30N 44°26' E 037°23'1 1.4
2017-Dec-03 12:00N 44°25' E 037°24'1 1.5
2017-Dec-03 11:30N 44°25' E 037°25'1 1.5
2017-Dec-03 11:00N 44°25' E 037°26'1 1.6
2017-Dec-03 10:30N 44°25' E 037°27'1 1.5
2017-Dec-03 10:00N 44°25' E 037°28'1 1.5
2017-Dec-03 09:27N 44°24' E 037°29'1 1.5
2017-Dec-03 08:56N 44°24' E 037°30'1 1.5
2017-Dec-03 08:28N 44°24' E 037°31'1 1.4
2017-Dec-03 08:00N 44°23' E 037°32'1 1.4
2017-Dec-03 07:30N 44°23' E 037°33'1 1.4
2017-Dec-03 07:00N 44°23' E 037°34'1 1.4
2017-Dec-03 06:30N 44°23' E 037°35'1 1.1
2017-Dec-03 05:24N 44°23' E 037°37'1 1.4
2017-Dec-03 05:00N 44°23' E 037°36'5 9.7
2017-Dec-03 04:30N 44°24' E 037°30'712.8
2017-Dec-03 04:00N 44°21' E 037°21'2110.1
2017-Dec-03 01:56N 44°12' E 036°56'610.1
2017-Dec-03 01:20N 44°09' E 036°48'1610.4
2017-Dec-02 23:46N 44°02' E 036°28'12810.2
2017-Dec-02 11:18N 43°17' E 033°43'310.3
2017-Dec-02 11:00N 43°16' E 033°39'  
Track history (hours):
 
Tides and Currents Weather Stations Pressure Air Temp Water Temp Dewpoint Dewpoint Depression Visibility Wind Speed Wind Dir Waves Ship Positions

Aleksey Kosygin

Last reported at 2017-Dec-11 08:27 UTC. Time now 2017-Dec-14 14:47 UTC.
Position N 40°57' E 028°55'.

Length 280 m; draft 15.4 m.

Type: Tanker. MMSI: 636013296.

Date/timePositionNaut miles runAvg speedWind from/ knotsBaromVisibWave heightAir tempDewpointWater temp
2017-Dec-11 08:27N 40°57' E 028°55'4 2.8
2017-Dec-11 07:09N 40°59' E 028°59'  
2017-Dec-08 07:04N 44°25' E 037°23'513.5
2017-Dec-08 06:43N 44°26' E 037°30'313.2
2017-Dec-08 06:31N 44°28' E 037°33'712.9
2017-Dec-08 06:00N 44°31' E 037°41'713.4
2017-Dec-08 05:30N 44°36' E 037°47'5 9.6
2017-Dec-08 05:00N 44°40' E 037°50'2 4.0
2017-Dec-08 04:30N 44°42' E 037°50'0 0.1
2017-Dec-08 03:59N 44°42' E 037°50'0 0.0
2017-Dec-08 03:28N 44°42' E 037°50'0 0.0
2017-Dec-08 02:59N 44°42' E 037°50'0 0.0
2017-Dec-08 02:29N 44°42' E 037°50'0 0.0
2017-Dec-08 02:00N 44°42' E 037°50'0 0.0
2017-Dec-08 01:31N 44°42' E 037°50'0 0.0
2017-Dec-08 00:59N 44°42' E 037°50'0 0.0
2017-Dec-08 00:30N 44°42' E 037°50'0 0.0
2017-Dec-07 23:56N 44°42' E 037°50'0 0.0
2017-Dec-07 23:29N 44°42' E 037°50'0 0.0
2017-Dec-07 23:00N 44°42' E 037°50'0 0.0
2017-Dec-07 22:23N 44°42' E 037°50'0 0.0
2017-Dec-07 22:00N 44°42' E 037°50'0 0.0
2017-Dec-07 21:30N 44°42' E 037°50'0 0.0
2017-Dec-07 20:58N 44°42' E 037°50'0 0.0
2017-Dec-07 20:23N 44°42' E 037°50'0 0.0
2017-Dec-07 19:54N 44°42' E 037°50'0 0.0
2017-Dec-07 19:28N 44°42' E 037°50'0 0.0
2017-Dec-07 19:00N 44°42' E 037°50'0 0.0
2017-Dec-07 18:29N 44°42' E 037°50'0 0.0
2017-Dec-07 18:00N 44°42' E 037°50'0 0.0
2017-Dec-07 17:29N 44°42' E 037°50'0 0.0
2017-Dec-07 16:56N 44°42' E 037°50'0 0.0
2017-Dec-07 16:27N 44°42' E 037°50'0 0.0
2017-Dec-07 16:00N 44°42' E 037°50'0 0.0
2017-Dec-07 15:30N 44°42' E 037°50'0 0.0
2017-Dec-07 14:58N 44°42' E 037°50'0 0.0
2017-Dec-07 14:25N 44°42' E 037°50'0 0.0
2017-Dec-07 14:00N 44°42' E 037°50'0 0.0
2017-Dec-07 13:30N 44°42' E 037°50'0 0.0
2017-Dec-07 13:00N 44°42' E 037°50'0 0.0
2017-Dec-07 12:29N 44°42' E 037°50'0 0.0
2017-Dec-07 11:59N 44°42' E 037°50'0 0.0
2017-Dec-07 11:30N 44°42' E 037°50'0 0.0
2017-Dec-07 10:58N 44°42' E 037°50'0 0.0
2017-Dec-07 10:27N 44°42' E 037°50'0 0.0
2017-Dec-07 10:00N 44°42' E 037°50'0 0.0
2017-Dec-07 09:27N 44°42' E 037°50'0 0.0
2017-Dec-07 08:56N 44°42' E 037°50'0 0.0
2017-Dec-07 08:25N 44°42' E 037°50'0 0.0
2017-Dec-07 07:58N 44°42' E 037°50'0 0.0
2017-Dec-07 07:28N 44°42' E 037°50'0 0.0
2017-Dec-07 07:00N 44°42' E 037°50'0 0.0
2017-Dec-07 06:24N 44°42' E 037°50'0 0.0
2017-Dec-07 05:59N 44°42' E 037°50'0 0.0
2017-Dec-07 05:29N 44°42' E 037°50'0 0.0
2017-Dec-07 04:58N 44°42' E 037°50'0 0.0
2017-Dec-07 04:29N 44°42' E 037°50'0 0.0
2017-Dec-07 03:59N 44°42' E 037°50'0 0.0
2017-Dec-07 03:29N 44°42' E 037°50'0 0.0
2017-Dec-07 02:58N 44°42' E 037°50'0 0.0
2017-Dec-07 02:29N 44°42' E 037°50'0 0.0
2017-Dec-07 01:58N 44°42' E 037°50'0 0.0
2017-Dec-07 01:30N 44°42' E 037°50'0 0.0
2017-Dec-07 01:00N 44°42' E 037°50'0 0.1
2017-Dec-07 00:30N 44°42' E 037°50'1 1.1
2017-Dec-07 00:00N 44°42' E 037°50'4 7.3
2017-Dec-06 23:30N 44°38' E 037°52'611.8
2017-Dec-06 23:00N 44°32' E 037°52'612.7
2017-Dec-06 22:30N 44°26' E 037°50'713.4
2017-Dec-06 22:01N 44°20' E 037°48'2 2.3
2017-Dec-06 21:14N 44°18' E 037°50'0 1.6
2017-Dec-06 21:00N 44°18' E 037°49'  
2017-Dec-04 09:55N 44°19' E 037°37'1 1.2
2017-Dec-04 09:29N 44°19' E 037°37'1 1.1
2017-Dec-04 08:56N 44°19' E 037°38'1 1.2
2017-Dec-04 08:28N 44°18' E 037°39'1 1.4
2017-Dec-04 07:32N 44°18' E 037°40'0 1.3
2017-Dec-04 07:23N 44°18' E 037°41'2 1.3
2017-Dec-04 06:03N 44°17' E 037°43'0 1.4
2017-Dec-04 05:53N 44°17' E 037°43'1 1.5
2017-Dec-04 05:30N 44°17' E 037°44'3 1.8
2017-Dec-04 03:56N 44°15' E 037°47'1 1.8
2017-Dec-04 03:30N 44°15' E 037°48'1 1.8
2017-Dec-04 02:57N 44°14' E 037°49'1 1.7
2017-Dec-04 02:29N 44°14' E 037°50'1 1.5
2017-Dec-04 02:00N 44°14' E 037°51'1 1.4
2017-Dec-04 01:29N 44°14' E 037°52'1 1.4
2017-Dec-04 00:55N 44°13' E 037°53'1 1.4
2017-Dec-04 00:28N 44°13' E 037°54'1 1.4
2017-Dec-03 23:57N 44°13' E 037°55'1 1.2
2017-Dec-03 23:12N 44°13' E 037°57'0 1.2
2017-Dec-03 23:00N 44°13' E 037°57'1 1.3
2017-Dec-03 22:30N 44°13' E 037°58'1 1.6
2017-Dec-03 21:59N 44°13' E 037°59'1 2.7
2017-Dec-03 21:30N 44°14' E 037°57'713.3
2017-Dec-03 21:00N 44°16' E 037°48'815.4
2017-Dec-03 20:30N 44°18' E 037°38'815.4
2017-Dec-03 20:00N 44°20' E 037°28'815.0
2017-Dec-03 19:30N 44°24' E 037°19'612.1
2017-Dec-03 19:00N 44°28' E 037°12'1 1.2
2017-Dec-03 18:22N 44°28' E 037°13'0 1.1
2017-Dec-03 17:57N 44°28' E 037°14'0 1.1
2017-Dec-03 17:30N 44°28' E 037°15'1 1.2
2017-Dec-03 16:59N 44°27' E 037°16'1 1.3
2017-Dec-03 16:30N 44°27' E 037°16'1 1.2
2017-Dec-03 16:00N 44°27' E 037°17'1 1.3
2017-Dec-03 15:29N 44°27' E 037°18'1 1.3
2017-Dec-03 14:55N 44°27' E 037°19'1 1.4
2017-Dec-03 14:29N 44°27' E 037°20'1 1.3
2017-Dec-03 14:00N 44°26' E 037°21'1 1.2
2017-Dec-03 13:30N 44°26' E 037°22'1 1.3
2017-Dec-03 13:00N 44°26' E 037°22'1 1.3
2017-Dec-03 12:30N 44°26' E 037°23'1 1.4
2017-Dec-03 12:00N 44°25' E 037°24'1 1.5
2017-Dec-03 11:30N 44°25' E 037°25'1 1.5
2017-Dec-03 11:00N 44°25' E 037°26'1 1.6
2017-Dec-03 10:30N 44°25' E 037°27'1 1.5
2017-Dec-03 10:00N 44°25' E 037°28'1 1.5
2017-Dec-03 09:27N 44°24' E 037°29'1 1.5
2017-Dec-03 08:56N 44°24' E 037°30'1 1.5
2017-Dec-03 08:28N 44°24' E 037°31'1 1.4
2017-Dec-03 08:00N 44°23' E 037°32'1 1.4
2017-Dec-03 07:30N 44°23' E 037°33'1 1.4
2017-Dec-03 07:00N 44°23' E 037°34'1 1.4
2017-Dec-03 06:30N 44°23' E 037°35'1 1.1
2017-Dec-03 05:24N 44°23' E 037°37'1 1.4
2017-Dec-03 05:00N 44°23' E 037°36'5 9.7
2017-Dec-03 04:30N 44°24' E 037°30'712.8
2017-Dec-03 04:00N 44°21' E 037°21'2110.1
2017-Dec-03 01:56N 44°12' E 036°56'610.1
2017-Dec-03 01:20N 44°09' E 036°48'1610.4
2017-Dec-02 23:46N 44°02' E 036°28'12810.2
2017-Dec-02 11:18N 43°17' E 033°43'310.3
2017-Dec-02 11:00N 43°16' E 033°39'  

Dump ship's entire track history